Time;durP1;ratioP1;P1;durP2;ratioP2;P2;SDS_P1;SDS_P2;PMS_P1;PMS_P2;Temp;Humidity;BMP_temperature;BMP_pressure;BME280_temperature;BME280_humidity;BME280_pressure;Samples;Min_cycle;Max_cycle;Signal;HPM_P1;HPM_P2
2024/01/27 00:04:38;;;;;;;119.75;112.07;;;4.50;99.90;;;;;;12618204;28;20519;-84
2024/01/27 00:10:40;;;;;;;123.55;115.00;;;4.30;99.90;;;;;;12610906;28;20049;-84
2024/01/27 00:16:42;;;;;;;123.70;115.00;;;4.30;99.90;;;;;;12607407;28;20055;-85
2024/01/27 00:22:44;;;;;;;128.07;119.13;;;4.20;99.90;;;;;;12612903;28;20621;-84
2024/01/27 00:28:46;;;;;;;126.93;118.03;;;4.10;99.90;;;;;;12600353;28;20102;-83
2024/01/27 00:34:48;;;;;;;131.95;122.57;;;4.00;99.90;;;;;;12593902;28;20075;-84
2024/01/27 00:40:50;;;;;;;133.30;123.78;;;3.80;99.90;;;;;;12608637;28;20052;-83
2024/01/27 00:46:52;;;;;;;128.52;119.57;;;3.90;99.90;;;;;;12606100;28;20424;-84
2024/01/27 00:52:54;;;;;;;121.05;112.65;;;3.90;99.90;;;;;;12603181;28;20067;-83
2024/01/27 00:58:59;;;;;;;124.88;116.65;;;3.80;99.90;;;;;;12595736;28;20552;-82
2024/01/27 01:05:03;;;;;;;125.97;117.38;;;3.80;99.90;;;;;;12610803;28;20079;-83
2024/01/27 01:11:05;;;;;;;133.07;123.70;;;3.80;99.90;;;;;;12607355;28;20048;-82
2024/01/27 01:17:07;;;;;;;137.10;127.60;;;3.60;99.90;;;;;;12625290;28;20669;-82
2024/01/27 01:23:09;;;;;;;141.52;130.50;;;3.50;99.90;;;;;;12621406;28;20578;-82
2024/01/27 01:29:11;;;;;;;138.98;129.48;;;3.50;99.90;;;;;;12619547;28;20143;-82
2024/01/27 01:35:13;;;;;;;128.80;120.00;;;3.50;99.90;;;;;;12614687;28;20385;-81
2024/01/27 01:41:15;;;;;;;131.88;122.13;;;3.60;99.90;;;;;;12617971;28;20060;-81
2024/01/27 01:47:18;;;;;;;129.00;120.25;;;3.60;99.90;;;;;;12619012;28;20071;-81
2024/01/27 01:53:20;;;;;;;158.45;147.75;;;3.50;99.90;;;;;;12573156;28;20045;-84
2024/01/27 01:59:23;;;;;;;130.38;120.60;;;3.40;99.90;;;;;;12508990;28;20152;-84
2024/01/27 02:05:25;;;;;;;164.60;152.77;;;3.50;99.90;;;;;;12494243;28;20053;-84
2024/01/27 02:11:27;;;;;;;164.30;152.40;;;3.20;99.90;;;;;;12502097;28;20049;-83
2024/01/27 02:17:28;;;;;;;165.90;153.95;;;3.10;99.90;;;;;;12487477;28;20068;-83
2024/01/27 02:23:30;;;;;;;161.63;150.02;;;3.00;99.90;;;;;;12519664;28;20110;-83
2024/01/27 02:29:32;;;;;;;151.73;140.73;;;2.90;99.90;;;;;;12503168;28;20049;-83
2024/01/27 02:35:34;;;;;;;156.40;145.10;;;3.10;99.90;;;;;;12505782;28;20057;-83
2024/01/27 02:41:38;;;;;;;165.82;154.18;;;3.00;99.90;;;;;;12499414;28;20052;-83
2024/01/27 02:47:40;;;;;;;174.63;161.85;;;3.00;99.90;;;;;;12500584;28;20504;-83
2024/01/27 02:53:42;;;;;;;171.38;158.95;;;2.90;99.90;;;;;;12528370;28;20126;-83
2024/01/27 02:59:48;;;;;;;162.35;150.52;;;2.90;99.90;;;;;;12569826;28;20053;-80
2024/01/27 03:05:50;;;;;;;166.05;153.95;;;2.90;99.90;;;;;;12563760;28;20055;-79
2024/01/27 03:11:52;;;;;;;161.70;150.18;;;2.80;99.90;;;;;;12573470;28;20056;-80
2024/01/27 03:17:54;;;;;;;161.77;150.00;;;2.90;99.90;;;;;;12565336;28;20195;-80
2024/01/27 03:23:56;;;;;;;160.85;149.30;;;2.70;99.90;;;;;;12567320;28;20530;-80
2024/01/27 03:30:03;;;;;;;214.50;199.82;;;2.70;99.90;;;;;;12574555;28;20048;-80
2024/01/27 03:36:14;;;;;;;269.73;251.73;;;2.60;99.90;;;;;;12593127;28;20053;-79
2024/01/27 03:42:16;;;;;;;206.32;191.90;;;2.50;99.90;;;;;;12582830;28;20060;-80
2024/01/27 03:48:18;;;;;;;210.50;195.70;;;2.60;99.90;;;;;;12580724;28;20053;-80
2024/01/27 03:54:20;;;;;;;204.27;190.10;;;2.60;99.90;;;;;;12600404;28;20048;-80
2024/01/27 04:00:22;;;;;;;176.77;163.82;;;2.60;99.90;;;;;;12607729;28;20059;-82
2024/01/27 04:06:24;;;;;;;194.10;180.82;;;2.60;99.90;;;;;;12635434;28;20218;-83
2024/01/27 04:12:26;;;;;;;213.57;198.57;;;2.60;99.90;;;;;;12640165;28;20048;-81
2024/01/27 04:18:28;;;;;;;171.52;159.52;;;2.60;99.90;;;;;;12617475;28;20060;-83
2024/01/27 04:24:30;;;;;;;173.98;161.88;;;2.50;99.90;;;;;;12607635;28;20062;-83
2024/01/27 04:30:32;;;;;;;184.52;172.00;;;2.40;99.90;;;;;;12614602;28;20051;-82
2024/01/27 04:36:34;;;;;;;187.93;175.13;;;2.40;99.90;;;;;;12624273;28;20059;-82
2024/01/27 04:42:40;;;;;;;191.68;178.48;;;2.40;99.90;;;;;;12625376;28;20048;-82
2024/01/27 04:48:42;;;;;;;199.35;185.77;;;2.40;99.90;;;;;;12603147;28;20052;-82
2024/01/27 04:54:44;;;;;;;202.25;188.32;;;2.30;99.90;;;;;;12622006;28;20075;-83
2024/01/27 05:00:46;;;;;;;183.77;171.20;;;2.30;99.90;;;;;;12603880;28;20063;-83
2024/01/27 05:06:49;;;;;;;195.13;182.18;;;2.30;99.90;;;;;;12601441;28;20120;-82
2024/01/27 05:12:51;;;;;;;181.32;168.75;;;2.30;99.90;;;;;;12600279;28;20053;-81
2024/01/27 05:18:53;;;;;;;192.07;179.30;;;2.30;99.90;;;;;;12613146;28;20051;-77
2024/01/27 05:24:55;;;;;;;188.10;175.40;;;2.40;99.90;;;;;;12647511;28;20056;-79
2024/01/27 05:30:57;;;;;;;202.00;188.43;;;2.40;99.90;;;;;;12619290;28;20044;-79
2024/01/27 05:36:59;;;;;;;197.60;183.68;;;2.40;99.90;;;;;;12625482;28;20059;-79
2024/01/27 05:43:01;;;;;;;174.93;163.25;;;2.40;99.90;;;;;;12600521;28;20067;-78
2024/01/27 05:49:03;;;;;;;193.23;180.05;;;2.50;99.90;;;;;;12621706;28;20044;-79
2024/01/27 05:55:06;;;;;;;202.23;188.05;;;2.40;99.90;;;;;;12632950;28;20062;-78
2024/01/27 06:01:09;;;;;;;200.70;187.43;;;2.40;99.90;;;;;;12643070;28;20065;-77
2024/01/27 06:07:11;;;;;;;183.05;170.77;;;2.30;99.90;;;;;;12619676;28;20049;-80
2024/01/27 06:13:13;;;;;;;186.07;173.18;;;2.30;99.90;;;;;;12625200;28;20056;-78
2024/01/27 06:19:15;;;;;;;188.70;175.98;;;2.30;99.90;;;;;;12616920;28;20481;-78
2024/01/27 06:25:17;;;;;;;171.88;160.00;;;2.30;99.90;;;;;;12613377;28;20515;-79
2024/01/27 06:31:19;;;;;;;205.30;191.20;;;2.40;99.90;;;;;;12603338;28;20049;-83
2024/01/27 06:37:21;;;;;;;182.82;170.27;;;2.30;99.90;;;;;;12608077;28;20049;-83
2024/01/27 06:43:24;;;;;;;217.82;203.43;;;2.30;99.90;;;;;;12598451;28;20191;-83
2024/01/27 06:49:26;;;;;;;218.02;203.07;;;2.20;99.90;;;;;;12604787;28;20056;-81
2024/01/27 06:55:28;;;;;;;183.27;170.98;;;2.10;99.90;;;;;;12603633;28;20105;-82
2024/01/27 07:01:30;;;;;;;222.77;208.15;;;2.10;99.90;;;;;;12589265;28;20054;-83
2024/01/27 07:07:31;;;;;;;216.13;201.70;;;2.10;99.90;;;;;;12601022;28;20139;-83
2024/01/27 07:13:33;;;;;;;252.18;235.63;;;2.10;99.90;;;;;;12634134;28;20059;-85
2024/01/27 07:19:35;;;;;;;226.68;211.88;;;2.10;99.90;;;;;;12616189;28;20056;-83
2024/01/27 07:25:38;;;;;;;214.38;199.63;;;2.00;99.90;;;;;;12623253;28;20060;-83
2024/01/27 07:31:40;;;;;;;189.35;176.55;;;2.00;99.90;;;;;;12612687;28;20048;-83
2024/01/27 07:37:43;;;;;;;205.23;191.10;;;2.00;99.90;;;;;;12604001;28;20056;-83
2024/01/27 07:43:44;;;;;;;238.48;222.43;;;2.00;99.90;;;;;;12618701;28;20055;-82
2024/01/27 07:49:48;;;;;;;206.85;192.05;;;2.00;99.90;;;;;;12649655;28;20133;-83
2024/01/27 07:55:53;;;;;;;192.48;178.93;;;2.00;99.90;;;;;;12601867;28;20052;-82
2024/01/27 08:01:55;;;;;;;;;;;2.10;99.90;;;;;;12570915;28;20064;-82
2024/01/27 08:07:57;;;;;;;225.23;209.70;;;2.20;99.90;;;;;;12564290;28;19968;-83
2024/01/27 08:13:59;;;;;;;170.07;158.18;;;2.20;99.90;;;;;;12590458;28;20541;-82
2024/01/27 08:20:01;;;;;;;203.35;188.95;;;2.30;99.90;;;;;;12585360;28;20075;-82
2024/01/27 08:26:03;;;;;;;180.52;167.80;;;2.30;99.90;;;;;;12594580;28;20110;-82
2024/01/27 08:32:05;;;;;;;183.85;170.77;;;2.40;99.90;;;;;;12568462;28;20138;-82
2024/01/27 08:38:09;;;;;;;179.65;166.30;;;2.50;99.90;;;;;;12575275;28;20452;-82
2024/01/27 08:44:11;;;;;;;192.90;179.53;;;2.60;99.90;;;;;;12587707;28;20060;-83
2024/01/27 08:50:14;;;;;;;190.55;177.40;;;2.80;99.90;;;;;;12570540;28;20087;-79
2024/01/27 08:56:20;;;;;;;197.82;184.43;;;2.90;99.90;;;;;;12628495;28;20059;-79
2024/01/27 09:02:22;;;;;;;193.95;180.55;;;3.10;99.90;;;;;;12607571;28;20056;-78
2024/01/27 09:08:23;;;;;;;204.95;191.05;;;3.20;99.90;;;;;;12645869;28;20048;-79
2024/01/27 09:14:25;;;;;;;205.93;192.15;;;3.30;99.90;;;;;;12633950;28;20126;-80
2024/01/27 09:20:27;;;;;;;197.52;184.00;;;3.40;99.90;;;;;;12614877;28;20063;-79
2024/01/27 09:26:29;;;;;;;209.88;195.45;;;3.50;99.90;;;;;;12643594;28;20211;-79
2024/01/27 09:32:31;;;;;;;215.13;200.68;;;3.50;99.90;;;;;;12652092;28;20044;-78
2024/01/27 09:38:33;;;;;;;234.50;219.10;;;3.60;99.90;;;;;;12654986;28;20063;-79
2024/01/27 09:44:36;;;;;;;213.15;198.35;;;3.70;99.90;;;;;;12638889;28;20098;-79
2024/01/27 09:50:41;;;;;;;213.55;199.05;;;3.70;99.90;;;;;;12620991;28;20044;-78
2024/01/27 09:56:45;;;;;;;214.05;199.95;;;3.80;99.90;;;;;;12640656;28;20048;-80
2024/01/27 10:02:48;;;;;;;213.85;199.48;;;3.90;99.90;;;;;;12638119;28;20052;-79
2024/01/27 10:08:54;;;;;;;193.20;180.27;;;4.00;99.90;;;;;;12630841;28;20296;-78
2024/01/27 10:14:57;;;;;;;204.02;190.55;;;4.20;99.90;;;;;;12639802;28;20052;-79
2024/01/27 10:20:59;;;;;;;180.23;168.23;;;4.30;99.90;;;;;;12626538;28;20049;-79
2024/01/27 10:27:03;;;;;;;180.35;168.30;;;4.50;99.90;;;;;;12635199;28;20056;-79
2024/01/27 10:33:08;;;;;;;172.13;160.53;;;4.70;99.90;;;;;;12626471;28;20076;-78
2024/01/27 10:39:22;;;;;;;175.60;163.55;;;4.80;99.90;;;;;;12634216;28;20052;-79
2024/01/27 10:45:26;;;;;;;182.10;170.10;;;5.00;99.90;;;;;;12634942;28;20095;-79
2024/01/27 10:51:36;;;;;;;178.45;166.73;;;5.20;99.90;;;;;;12636700;28;20053;-79
2024/01/27 10:57:40;;;;;;;188.23;175.75;;;5.40;99.90;;;;;;12635208;28;20050;-79
2024/01/27 11:03:43;;;;;;;171.57;159.80;;;5.50;99.90;;;;;;12618944;28;20056;-82
2024/01/27 11:09:48;;;;;;;168.67;158.00;;;5.70;99.90;;;;;;12617030;28;20090;-83
2024/01/27 11:15:54;;;;;;;185.27;173.82;;;5.90;99.90;;;;;;12645515;28;20057;-82
2024/01/27 11:22:03;;;;;;;152.23;142.63;;;6.10;99.90;;;;;;12668220;28;20050;-83
2024/01/27 11:28:16;;;;;;;157.18;147.23;;;6.20;99.90;;;;;;12664148;28;20054;-83
2024/01/27 11:34:19;;;;;;;137.15;128.90;;;6.30;99.90;;;;;;12666834;28;20051;-84
2024/01/27 11:40:22;;;;;;;;;;;6.40;99.90;;;;;;12642902;28;20052;-83
2024/01/27 11:46:25;;;;;;;136.95;127.95;;;6.40;99.90;;;;;;12655074;28;19920;-83
2024/01/27 11:52:28;;;;;;;128.82;120.85;;;6.50;99.90;;;;;;12674779;28;20038;-83
2024/01/27 11:58:31;;;;;;;118.18;111.40;;;6.50;99.90;;;;;;12671110;28;20049;-84
2024/01/27 12:04:33;;;;;;;123.43;116.18;;;6.60;99.90;;;;;;12631058;28;20431;-84
2024/01/27 12:10:36;;;;;;;145.00;136.25;;;6.70;99.90;;;;;;12643405;28;20044;-83
2024/01/27 12:16:38;;;;;;;135.52;127.78;;;6.80;99.90;;;;;;12638591;28;20052;-79
2024/01/27 12:22:40;;;;;;;126.40;118.65;;;7.00;99.90;;;;;;12648721;28;20052;-79
2024/01/27 12:28:45;;;;;;;116.30;109.90;;;7.00;99.90;;;;;;12626103;28;20044;-80
2024/01/27 12:34:49;;;;;;;122.88;116.07;;;7.30;99.90;;;;;;12645476;28;20318;-79
2024/01/27 12:40:51;;;;;;;;;;;7.10;99.90;;;;;;12619788;28;20063;-80
2024/01/27 12:46:54;;;;;;;114.68;107.78;;;7.10;99.90;;;;;;12636583;28;19927;-81
2024/01/27 12:52:55;;;;;;;124.43;117.45;;;7.20;99.90;;;;;;12632674;28;20052;-80
2024/01/27 12:58:57;;;;;;;109.70;103.47;;;7.20;99.90;;;;;;12648479;28;20081;-79
2024/01/27 13:04:59;;;;;;;110.70;104.55;;;7.20;99.90;;;;;;12649983;28;20112;-79
2024/01/27 13:11:02;;;;;;;112.82;106.50;;;7.20;99.90;;;;;;12631222;28;20097;-79
2024/01/27 13:17:04;;;;;;;100.18;94.35;;;7.20;99.90;;;;;;12632666;28;20059;-79
2024/01/27 13:23:07;;;;;;;79.55;75.00;;;7.20;99.90;;;;;;12625823;28;20064;-84
2024/01/27 13:29:09;;;;;;;83.05;78.30;;;7.20;99.90;;;;;;12626520;28;20060;-82
2024/01/27 13:35:11;;;;;;;81.70;77.10;;;7.10;99.90;;;;;;12613602;28;20044;-84
2024/01/27 13:41:13;;;;;;;85.05;80.35;;;7.10;99.90;;;;;;12629432;28;20446;-82
2024/01/27 13:47:15;;;;;;;108.40;102.72;;;7.10;99.90;;;;;;12609717;28;20061;-83
2024/01/27 13:53:17;;;;;;;71.25;67.10;;;7.10;99.90;;;;;;12606156;28;20052;-84
2024/01/27 13:59:21;;;;;;;87.80;82.57;;;7.20;99.90;;;;;;12627775;28;20048;-82
2024/01/27 14:05:24;;;;;;;72.30;67.75;;;7.10;99.90;;;;;;12608113;28;20043;-82
2024/01/27 14:11:28;;;;;;;73.50;69.30;;;7.10;99.90;;;;;;12621223;28;20553;-83
2024/01/27 14:17:30;;;;;;;70.55;66.28;;;7.10;99.90;;;;;;12627760;28;20067;-82
2024/01/27 14:23:32;;;;;;;73.93;70.03;;;7.10;99.90;;;;;;12603585;28;20055;-82
2024/01/27 14:29:35;;;;;;;79.90;75.35;;;7.00;99.90;;;;;;12618762;28;20401;-83
2024/01/27 14:35:37;;;;;;;90.80;86.10;;;6.90;99.90;;;;;;12619449;28;20086;-79
2024/01/27 14:41:39;;;;;;;75.07;70.85;;;6.70;99.90;;;;;;12624158;28;20056;-81
2024/01/27 14:47:41;;;;;;;68.95;64.53;;;6.70;99.90;;;;;;12626826;28;20055;-80
2024/01/27 14:53:43;;;;;;;69.88;65.88;;;6.80;99.90;;;;;;12641813;28;20459;-79
2024/01/27 14:59:45;;;;;;;69.28;65.22;;;6.70;99.90;;;;;;12631427;28;20103;-79
2024/01/27 15:05:48;;;;;;;91.68;86.88;;;6.70;99.90;;;;;;12615276;28;20048;-82
2024/01/27 15:11:51;;;;;;;69.70;65.20;;;6.60;99.90;;;;;;12635202;28;20117;-79
2024/01/27 15:18:00;;;;;;;100.75;95.10;;;6.60;99.90;;;;;;12604299;28;20053;-82
2024/01/27 15:24:02;;;;;;;111.22;104.72;;;6.40;99.90;;;;;;12644605;28;20048;-79
2024/01/27 15:30:04;;;;;;;122.65;115.63;;;6.10;99.90;;;;;;12642958;28;20048;-80
2024/01/27 15:36:07;;;;;;;117.80;111.18;;;5.90;99.90;;;;;;12624182;28;20056;-79
2024/01/27 15:42:09;;;;;;;108.00;102.20;;;5.70;99.90;;;;;;12636743;28;20447;-84
2024/01/27 15:48:12;;;;;;;114.00;107.53;;;5.50;99.90;;;;;;12651808;28;20059;-79
2024/01/27 15:54:17;;;;;;;113.53;107.13;;;5.30;99.90;;;;;;12645362;28;20053;-78
2024/01/27 16:00:20;;;;;;;107.07;101.18;;;5.20;99.90;;;;;;12645405;28;20047;-79
2024/01/27 16:06:23;;;;;;;98.13;92.47;;;5.20;99.90;;;;;;12638580;28;20060;-79
2024/01/27 16:12:25;;;;;;;101.80;96.40;;;5.10;99.90;;;;;;12637593;28;20039;-79
2024/01/27 16:18:27;;;;;;;104.60;98.55;;;5.00;99.90;;;;;;12644957;28;20052;-78
2024/01/27 16:24:29;;;;;;;101.22;95.40;;;4.90;99.90;;;;;;12635441;28;20105;-78
2024/01/27 16:30:31;;;;;;;102.13;96.40;;;4.80;99.90;;;;;;12625713;28;20082;-79
2024/01/27 16:36:33;;;;;;;95.35;90.15;;;4.70;99.90;;;;;;12622709;28;20044;-78
2024/01/27 16:42:37;;;;;;;98.45;92.95;;;4.60;99.90;;;;;;12648444;28;20047;-78
2024/01/27 16:48:40;;;;;;;100.40;93.97;;;4.50;99.90;;;;;;12622918;28;20059;-78
2024/01/27 16:54:42;;;;;;;103.40;97.63;;;4.60;99.90;;;;;;12639617;28;20048;-83
2024/01/27 17:00:44;;;;;;;115.75;109.00;;;4.60;99.90;;;;;;12628465;28;20053;-83
2024/01/27 17:06:46;;;;;;;119.28;112.80;;;4.50;99.90;;;;;;12596268;28;20048;-83
2024/01/27 17:12:47;;;;;;;121.90;114.82;;;4.30;99.90;;;;;;12606904;28;20059;-83
2024/01/27 17:18:49;;;;;;;123.13;116.30;;;4.30;99.90;;;;;;12595732;28;20606;-83
2024/01/27 17:24:52;;;;;;;131.70;123.57;;;4.30;99.90;;;;;;12597506;28;20056;-83
2024/01/27 17:30:54;;;;;;;133.05;125.80;;;4.30;99.90;;;;;;12608548;28;20076;-84
2024/01/27 17:36:55;;;;;;;139.23;131.25;;;4.30;99.90;;;;;;12615438;28;20172;-83
2024/01/27 17:42:57;;;;;;;140.15;131.82;;;4.20;99.90;;;;;;12621625;28;20151;-83
2024/01/27 17:48:59;;;;;;;140.90;133.02;;;4.20;99.90;;;;;;12599392;28;20056;-83
2024/01/27 17:55:02;;;;;;;140.18;132.00;;;4.20;99.90;;;;;;12612254;28;20193;-81
2024/01/27 18:01:04;;;;;;;139.68;131.93;;;4.20;99.90;;;;;;12602541;28;20057;-84
2024/01/27 18:07:06;;;;;;;148.10;140.13;;;4.20;99.90;;;;;;12610132;28;20504;-82
2024/01/27 18:13:07;;;;;;;149.07;140.27;;;4.10;99.90;;;;;;12625340;28;20048;-82
2024/01/27 18:19:11;;;;;;;146.60;138.05;;;4.00;99.90;;;;;;12598677;28;20090;-82
2024/01/27 18:25:13;;;;;;;153.97;145.47;;;3.90;99.90;;;;;;12607782;28;20057;-81
2024/01/27 18:31:15;;;;;;;153.75;144.50;;;3.70;99.90;;;;;;12600849;28;20093;-82
2024/01/27 18:37:17;;;;;;;151.85;143.25;;;3.60;99.90;;;;;;12604367;28;20539;-82
2024/01/27 18:43:19;;;;;;;152.98;144.38;;;3.60;99.90;;;;;;12591075;28;20106;-82
2024/01/27 18:49:21;;;;;;;151.48;142.82;;;3.60;99.90;;;;;;12604947;28;20052;-82
2024/01/27 18:55:25;;;;;;;152.63;143.98;;;3.60;99.90;;;;;;12632770;28;20179;-81
2024/01/27 19:01:27;;;;;;;151.13;142.35;;;3.60;99.90;;;;;;12620032;28;20509;-82
2024/01/27 19:07:28;;;;;;;154.02;145.32;;;3.60;99.90;;;;;;12604616;28;20052;-81
2024/01/27 19:13:31;;;;;;;156.25;147.32;;;3.60;99.90;;;;;;12602006;28;20040;-84
2024/01/27 19:19:33;;;;;;;162.93;153.48;;;3.60;99.90;;;;;;12617483;28;20104;-83
2024/01/27 19:25:38;;;;;;;157.18;148.45;;;3.50;99.90;;;;;;12599860;28;20060;-83
2024/01/27 19:31:40;;;;;;;;;;;3.50;99.90;;;;;;12596675;28;20057;-84
2024/01/27 19:37:41;;;;;;;155.95;147.02;;;3.40;99.90;;;;;;12606105;28;19927;-84
2024/01/27 19:43:45;;;;;;;158.13;149.20;;;3.40;99.90;;;;;;12605690;28;20099;-83
2024/01/27 19:49:48;;;;;;;164.38;155.05;;;3.40;99.90;;;;;;12599191;28;20048;-84
2024/01/27 19:55:50;;;;;;;166.88;157.68;;;3.30;99.90;;;;;;12599389;28;20495;-84
2024/01/27 20:01:52;;;;;;;162.77;153.23;;;3.20;99.90;;;;;;12611331;28;20411;-83
2024/01/27 20:07:54;;;;;;;155.95;147.25;;;3.30;99.90;;;;;;12610317;28;20060;-84
2024/01/27 20:13:56;;;;;;;162.90;153.85;;;3.40;99.90;;;;;;12597168;28;20105;-83
2024/01/27 20:19:58;;;;;;;158.98;149.95;;;3.50;99.90;;;;;;12615356;28;20056;-83
2024/01/27 20:26:01;;;;;;;163.50;154.43;;;3.50;99.90;;;;;;12634897;28;20419;-82
2024/01/27 20:32:03;;;;;;;169.05;159.32;;;3.50;99.90;;;;;;12594259;28;20087;-82
2024/01/27 20:38:07;;;;;;;169.93;160.32;;;3.40;99.90;;;;;;12631413;28;20197;-82
2024/01/27 20:44:09;;;;;;;170.88;161.02;;;3.30;99.90;;;;;;12588732;28;20080;-82
2024/01/27 20:50:11;;;;;;;169.65;160.07;;;3.20;99.90;;;;;;12613465;28;20499;-81
2024/01/27 20:56:13;;;;;;;169.70;160.02;;;3.20;99.90;;;;;;12599990;28;20186;-81
2024/01/27 21:02:18;;;;;;;174.43;164.52;;;3.10;99.90;;;;;;12612798;28;20044;-81
2024/01/27 21:08:20;;;;;;;171.80;161.68;;;3.00;99.90;;;;;;12604493;28;20048;-81
2024/01/27 21:14:23;;;;;;;168.93;159.48;;;2.90;99.90;;;;;;12600462;28;20052;-81
2024/01/27 21:20:25;;;;;;;172.98;162.95;;;2.90;99.90;;;;;;12616687;28;20059;-81
2024/01/27 21:26:27;;;;;;;169.88;160.18;;;2.90;99.90;;;;;;12602330;28;20060;-81
2024/01/27 21:32:29;;;;;;;175.63;165.30;;;2.80;99.90;;;;;;12608421;28;20044;-82
2024/01/27 21:38:30;;;;;;;187.77;176.80;;;2.80;99.90;;;;;;12609730;28;20052;-80
2024/01/27 21:44:32;;;;;;;182.80;172.73;;;2.50;99.90;;;;;;12626221;28;20114;-83
2024/01/27 21:50:35;;;;;;;168.50;158.98;;;2.50;99.90;;;;;;12618670;28;20049;-83
2024/01/27 21:56:39;;;;;;;163.48;154.10;;;2.60;99.90;;;;;;12628971;28;20062;-81
2024/01/27 22:02:41;;;;;;;165.52;155.85;;;2.60;99.90;;;;;;12603700;28;20060;-84
2024/01/27 22:08:43;;;;;;;164.27;154.95;;;2.60;99.90;;;;;;12596274;28;20071;-83
2024/01/27 22:14:45;;;;;;;168.98;159.32;;;2.80;99.90;;;;;;12620670;28;20140;-83
2024/01/27 22:20:48;;;;;;;175.73;165.93;;;2.80;99.90;;;;;;12603291;28;20060;-83
2024/01/27 22:26:50;;;;;;;164.80;154.77;;;2.70;99.90;;;;;;12581070;28;20056;-83
2024/01/27 22:32:52;;;;;;;166.23;156.35;;;2.70;99.90;;;;;;12598522;28;20572;-83
2024/01/27 22:38:54;;;;;;;166.20;156.63;;;2.70;99.90;;;;;;12611736;28;20113;-83
2024/01/27 22:44:57;;;;;;;174.18;163.93;;;2.70;99.90;;;;;;12601349;28;20521;-84
2024/01/27 22:50:59;;;;;;;176.10;166.20;;;2.50;99.90;;;;;;12618209;28;20055;-83
2024/01/27 22:57:02;;;;;;;167.95;158.25;;;2.50;99.90;;;;;;12577418;28;20090;-83
2024/01/27 23:03:04;;;;;;;167.63;157.85;;;2.50;99.90;;;;;;12601792;28;20056;-83
2024/01/27 23:09:07;;;;;;;161.10;152.05;;;2.40;99.90;;;;;;12585416;28;20068;-83
2024/01/27 23:15:10;;;;;;;168.57;158.60;;;2.40;99.90;;;;;;12582074;28;20052;-83
2024/01/27 23:21:12;;;;;;;169.50;159.65;;;2.40;99.90;;;;;;12605635;28;20075;-83
2024/01/27 23:27:14;;;;;;;165.63;156.05;;;2.40;99.90;;;;;;12626110;28;20058;-84
2024/01/27 23:33:20;;;;;;;164.07;154.57;;;2.40;99.90;;;;;;12621558;28;20552;-83
2024/01/27 23:39:22;;;;;;;190.35;179.75;;;2.50;99.90;;;;;;12637262;28;20517;-84
2024/01/27 23:45:24;;;;;;;189.63;178.80;;;2.20;99.90;;;;;;12584830;28;20048;-84
2024/01/27 23:51:27;;;;;;;200.73;188.98;;;2.00;99.90;;;;;;12592175;28;20057;-83
2024/01/27 23:57:29;;;;;;;188.98;177.75;;;1.80;99.90;;;;;;12614930;28;20052;-79
